sensor_id;sensor_type;location;lat;lon;timestamp;P1;P2;P0
74333;PMS5003;62753;40.394;-80.022;2023-06-22T00:02:14;5;5;
74333;PMS5003;62753;40.394;-80.022;2023-06-22T00:04:40;6;6;
74333;PMS5003;62753;40.394;-80.022;2023-06-22T00:07:05;4;4;
74333;PMS5003;62753;40.394;-80.022;2023-06-22T00:09:30;5;4;
74333;PMS5003;62753;40.394;-80.022;2023-06-22T00:11:55;5;5;
74333;PMS5003;62753;40.394;-80.022;2023-06-22T00:14:21;4;4;
74333;PMS5003;62753;40.394;-80.022;2023-06-22T00:16:46;6;6;
74333;PMS5003;62753;40.394;-80.022;2023-06-22T00:19:11;8;7;
74333;PMS5003;62753;40.394;-80.022;2023-06-22T00:21:36;5;4;
74333;PMS5003;62753;40.394;-80.022;2023-06-22T00:24:01;7;5;
74333;PMS5003;62753;40.394;-80.022;2023-06-22T00:26:27;5;5;
74333;PMS5003;62753;40.394;-80.022;2023-06-22T00:28:52;5;5;
74333;PMS5003;62753;40.394;-80.022;2023-06-22T00:31:17;6;5;
74333;PMS5003;62753;40.394;-80.022;2023-06-22T00:33:42;7;7;
74333;PMS5003;62753;40.394;-80.022;2023-06-22T00:36:08;8;7;
74333;PMS5003;62753;40.394;-80.022;2023-06-22T00:38:32;4;4;
74333;PMS5003;62753;40.394;-80.022;2023-06-22T00:40:58;5;3;
74333;PMS5003;62753;40.394;-80.022;2023-06-22T00:43:23;6;6;
74333;PMS5003;62753;40.394;-80.022;2023-06-22T00:45:48;5;5;
74333;PMS5003;62753;40.394;-80.022;2023-06-22T00:48:14;5;4;
74333;PMS5003;62753;40.394;-80.022;2023-06-22T00:50:38;4;4;
74333;PMS5003;62753;40.394;-80.022;2023-06-22T00:53:05;6;6;
74333;PMS5003;62753;40.394;-80.022;2023-06-22T00:55:29;6;5;
74333;PMS5003;62753;40.394;-80.022;2023-06-22T00:57:54;6;6;
74333;PMS5003;62753;40.394;-80.022;2023-06-22T01:00:19;4;3;
74333;PMS5003;62753;40.394;-80.022;2023-06-22T01:02:44;6;6;
74333;PMS5003;62753;40.394;-80.022;2023-06-22T01:05:10;6;5;
74333;PMS5003;62753;40.394;-80.022;2023-06-22T01:07:38;6;6;
74333;PMS5003;62753;40.394;-80.022;2023-06-22T01:10:02;5;5;
74333;PMS5003;62753;40.394;-80.022;2023-06-22T01:12:26;6;5;
74333;PMS5003;62753;40.394;-80.022;2023-06-22T01:14:53;7;7;
74333;PMS5003;62753;40.394;-80.022;2023-06-22T01:17:17;5;4;
74333;PMS5003;62753;40.394;-80.022;2023-06-22T01:19:44;7;6;
74333;PMS5003;62753;40.394;-80.022;2023-06-22T01:22:08;5;5;
74333;PMS5003;62753;40.394;-80.022;2023-06-22T01:24:33;5;5;
74333;PMS5003;62753;40.394;-80.022;2023-06-22T01:27:00;9;6;
74333;PMS5003;62753;40.394;-80.022;2023-06-22T01:29:24;6;6;
74333;PMS5003;62753;40.394;-80.022;2023-06-22T01:31:49;6;5;
74333;PMS5003;62753;40.394;-80.022;2023-06-22T01:34:14;4;3;
74333;PMS5003;62753;40.394;-80.022;2023-06-22T01:36:39;6;6;
74333;PMS5003;62753;40.394;-80.022;2023-06-22T01:39:05;6;6;
74333;PMS5003;62753;40.394;-80.022;2023-06-22T01:41:30;4;4;
74333;PMS5003;62753;40.394;-80.022;2023-06-22T01:43:55;7;7;
74333;PMS5003;62753;40.394;-80.022;2023-06-22T01:46:20;7;5;
74333;PMS5003;62753;40.394;-80.022;2023-06-22T01:48:46;5;4;
74333;PMS5003;62753;40.394;-80.022;2023-06-22T01:51:11;4;4;
74333;PMS5003;62753;40.394;-80.022;2023-06-22T01:53:36;4;4;
74333;PMS5003;62753;40.394;-80.022;2023-06-22T01:56:01;6;6;
74333;PMS5003;62753;40.394;-80.022;2023-06-22T01:58:27;4;4;
74333;PMS5003;62753;40.394;-80.022;2023-06-22T02:00:53;4;4;
74333;PMS5003;62753;40.394;-80.022;2023-06-22T02:03:18;6;5;
74333;PMS5003;62753;40.394;-80.022;2023-06-22T02:05:47;10;7;
74333;PMS5003;62753;40.394;-80.022;2023-06-22T02:08:09;5;5;
74333;PMS5003;62753;40.394;-80.022;2023-06-22T02:10:34;7;6;
74333;PMS5003;62753;40.394;-80.022;2023-06-22T02:13:00;5;5;
74333;PMS5003;62753;40.394;-80.022;2023-06-22T02:15:25;6;5;
74333;PMS5003;62753;40.394;-80.022;2023-06-22T02:17:50;7;5;
74333;PMS5003;62753;40.394;-80.022;2023-06-22T02:20:15;6;5;
74333;PMS5003;62753;40.394;-80.022;2023-06-22T02:22:40;7;7;
74333;PMS5003;62753;40.394;-80.022;2023-06-22T02:25:06;9;8;
74333;PMS5003;62753;40.394;-80.022;2023-06-22T02:27:31;5;5;
74333;PMS5003;62753;40.394;-80.022;2023-06-22T02:29:56;8;7;
74333;PMS5003;62753;40.394;-80.022;2023-06-22T02:32:21;3;3;
74333;PMS5003;62753;40.394;-80.022;2023-06-22T02:34:46;5;4;
74333;PMS5003;62753;40.394;-80.022;2023-06-22T02:37:12;6;5;
74333;PMS5003;62753;40.394;-80.022;2023-06-22T02:39:37;6;6;
74333;PMS5003;62753;40.394;-80.022;2023-06-22T02:42:03;5;5;
74333;PMS5003;62753;40.394;-80.022;2023-06-22T02:44:27;5;5;
74333;PMS5003;62753;40.394;-80.022;2023-06-22T02:46:53;6;6;
74333;PMS5003;62753;40.394;-80.022;2023-06-22T02:49:18;6;6;
74333;PMS5003;62753;40.394;-80.022;2023-06-22T02:51:45;6;5;
74333;PMS5003;62753;40.394;-80.022;2023-06-22T02:54:08;6;6;
74333;PMS5003;62753;40.394;-80.022;2023-06-22T02:56:34;5;5;
74333;PMS5003;62753;40.394;-80.022;2023-06-22T02:58:59;8;8;
74333;PMS5003;62753;40.394;-80.022;2023-06-22T03:01:24;6;6;
74333;PMS5003;62753;40.394;-80.022;2023-06-22T03:06:15;6;6;
74333;PMS5003;62753;40.394;-80.022;2023-06-22T03:08:40;7;6;
74333;PMS5003;62753;40.394;-80.022;2023-06-22T03:11:05;6;5;
74333;PMS5003;62753;40.394;-80.022;2023-06-22T03:13:31;8;7;
74333;PMS5003;62753;40.394;-80.022;2023-06-22T03:15:56;5;5;
74333;PMS5003;62753;40.394;-80.022;2023-06-22T03:18:22;6;5;
74333;PMS5003;62753;40.394;-80.022;2023-06-22T03:20:47;6;6;
74333;PMS5003;62753;40.394;-80.022;2023-06-22T03:23:12;7;6;
74333;PMS5003;62753;40.394;-80.022;2023-06-22T03:25:37;7;5;
74333;PMS5003;62753;40.394;-80.022;2023-06-22T03:28:03;5;5;
74333;PMS5003;62753;40.394;-80.022;2023-06-22T03:30:28;8;7;
74333;PMS5003;62753;40.394;-80.022;2023-06-22T03:32:53;7;5;
74333;PMS5003;62753;40.394;-80.022;2023-06-22T03:35:19;6;5;
74333;PMS5003;62753;40.394;-80.022;2023-06-22T03:37:44;6;6;
74333;PMS5003;62753;40.394;-80.022;2023-06-22T03:40:10;9;6;
74333;PMS5003;62753;40.394;-80.022;2023-06-22T03:42:35;6;6;
74333;PMS5003;62753;40.394;-80.022;2023-06-22T03:45:00;7;7;
74333;PMS5003;62753;40.394;-80.022;2023-06-22T03:47:25;9;8;
74333;PMS5003;62753;40.394;-80.022;2023-06-22T03:49:51;9;7;
74333;PMS5003;62753;40.394;-80.022;2023-06-22T03:52:16;6;5;
74333;PMS5003;62753;40.394;-80.022;2023-06-22T03:54:41;6;6;
74333;PMS5003;62753;40.394;-80.022;2023-06-22T03:57:06;7;7;
74333;PMS5003;62753;40.394;-80.022;2023-06-22T03:59:31;6;6;
74333;PMS5003;62753;40.394;-80.022;2023-06-22T04:01:57;8;7;
74333;PMS5003;62753;40.394;-80.022;2023-06-22T04:04:22;4;4;
74333;PMS5003;62753;40.394;-80.022;2023-06-22T04:06:47;6;6;
74333;PMS5003;62753;40.394;-80.022;2023-06-22T04:09:12;9;8;
74333;PMS5003;62753;40.394;-80.022;2023-06-22T04:11:38;6;6;
74333;PMS5003;62753;40.394;-80.022;2023-06-22T04:14:03;7;6;
74333;PMS5003;62753;40.394;-80.022;2023-06-22T04:16:28;6;6;
74333;PMS5003;62753;40.394;-80.022;2023-06-22T04:18:53;6;5;
74333;PMS5003;62753;40.394;-80.022;2023-06-22T04:21:19;7;6;
74333;PMS5003;62753;40.394;-80.022;2023-06-22T04:23:45;4;4;
74333;PMS5003;62753;40.394;-80.022;2023-06-22T04:26:10;8;7;
74333;PMS5003;62753;40.394;-80.022;2023-06-22T04:28:35;8;7;
74333;PMS5003;62753;40.394;-80.022;2023-06-22T04:31:00;8;8;
74333;PMS5003;62753;40.394;-80.022;2023-06-22T04:33:26;5;5;
74333;PMS5003;62753;40.394;-80.022;2023-06-22T04:35:51;6;6;
74333;PMS5003;62753;40.394;-80.022;2023-06-22T04:38:16;9;7;
74333;PMS5003;62753;40.394;-80.022;2023-06-22T04:40:41;6;6;
74333;PMS5003;62753;40.394;-80.022;2023-06-22T04:43:07;8;7;
74333;PMS5003;62753;40.394;-80.022;2023-06-22T04:45:32;7;6;
74333;PMS5003;62753;40.394;-80.022;2023-06-22T04:47:57;9;9;
74333;PMS5003;62753;40.394;-80.022;2023-06-22T04:50:22;7;6;
74333;PMS5003;62753;40.394;-80.022;2023-06-22T04:52:47;7;6;
74333;PMS5003;62753;40.394;-80.022;2023-06-22T04:55:14;9;8;
74333;PMS5003;62753;40.394;-80.022;2023-06-22T04:57:38;8;8;
74333;PMS5003;62753;40.394;-80.022;2023-06-22T05:00:04;7;6;
74333;PMS5003;62753;40.394;-80.022;2023-06-22T05:02:29;8;7;
74333;PMS5003;62753;40.394;-80.022;2023-06-22T05:04:54;7;7;
74333;PMS5003;62753;40.394;-80.022;2023-06-22T05:07:19;8;7;
74333;PMS5003;62753;40.394;-80.022;2023-06-22T05:09:46;7;7;
74333;PMS5003;62753;40.394;-80.022;2023-06-22T05:12:10;8;7;
74333;PMS5003;62753;40.394;-80.022;2023-06-22T05:14:35;6;5;
74333;PMS5003;62753;40.394;-80.022;2023-06-22T05:17:00;6;6;
74333;PMS5003;62753;40.394;-80.022;2023-06-22T05:19:26;6;6;
74333;PMS5003;62753;40.394;-80.022;2023-06-22T05:21:51;4;4;
74333;PMS5003;62753;40.394;-80.022;2023-06-22T05:24:16;7;7;
74333;PMS5003;62753;40.394;-80.022;2023-06-22T05:26:41;4;3;
74333;PMS5003;62753;40.394;-80.022;2023-06-22T05:29:07;6;5;
74333;PMS5003;62753;40.394;-80.022;2023-06-22T05:31:32;5;5;
74333;PMS5003;62753;40.394;-80.022;2023-06-22T05:33:57;7;5;
74333;PMS5003;62753;40.394;-80.022;2023-06-22T05:36:22;5;5;
74333;PMS5003;62753;40.394;-80.022;2023-06-22T05:38:48;4;4;
74333;PMS5003;62753;40.394;-80.022;2023-06-22T05:41:13;4;4;
74333;PMS5003;62753;40.394;-80.022;2023-06-22T05:43:38;4;3;
74333;PMS5003;62753;40.394;-80.022;2023-06-22T05:46:04;5;3;
74333;PMS5003;62753;40.394;-80.022;2023-06-22T05:48:29;6;5;
74333;PMS5003;62753;40.394;-80.022;2023-06-22T05:50:54;6;6;
74333;PMS5003;62753;40.394;-80.022;2023-06-22T05:53:19;6;5;
74333;PMS5003;62753;40.394;-80.022;2023-06-22T05:55:45;5;5;
74333;PMS5003;62753;40.394;-80.022;2023-06-22T05:58:11;5;5;
74333;PMS5003;62753;40.394;-80.022;2023-06-22T06:00:36;4;4;
74333;PMS5003;62753;40.394;-80.022;2023-06-22T06:03:01;8;8;
74333;PMS5003;62753;40.394;-80.022;2023-06-22T06:05:27;6;6;
74333;PMS5003;62753;40.394;-80.022;2023-06-22T06:07:52;6;6;
74333;PMS5003;62753;40.394;-80.022;2023-06-22T06:10:17;7;5;
74333;PMS5003;62753;40.394;-80.022;2023-06-22T06:12:42;5;5;
74333;PMS5003;62753;40.394;-80.022;2023-06-22T06:15:08;5;4;
74333;PMS5003;62753;40.394;-80.022;2023-06-22T06:17:33;7;7;
74333;PMS5003;62753;40.394;-80.022;2023-06-22T06:19:58;6;5;
74333;PMS5003;62753;40.394;-80.022;2023-06-22T06:22:23;3;3;
74333;PMS5003;62753;40.394;-80.022;2023-06-22T06:24:49;5;5;
74333;PMS5003;62753;40.394;-80.022;2023-06-22T06:27:14;4;4;
74333;PMS5003;62753;40.394;-80.022;2023-06-22T06:29:39;5;4;
74333;PMS5003;62753;40.394;-80.022;2023-06-22T06:32:05;5;4;
74333;PMS5003;62753;40.394;-80.022;2023-06-22T06:34:30;5;5;
74333;PMS5003;62753;40.394;-80.022;2023-06-22T06:36:55;5;5;
74333;PMS5003;62753;40.394;-80.022;2023-06-22T06:39:20;4;4;
74333;PMS5003;62753;40.394;-80.022;2023-06-22T06:41:46;5;5;
74333;PMS5003;62753;40.394;-80.022;2023-06-22T06:44:11;4;3;
74333;PMS5003;62753;40.394;-80.022;2023-06-22T06:46:36;5;5;
74333;PMS5003;62753;40.394;-80.022;2023-06-22T06:49:02;4;4;
74333;PMS5003;62753;40.394;-80.022;2023-06-22T06:51:27;5;5;
74333;PMS5003;62753;40.394;-80.022;2023-06-22T06:53:52;4;4;
74333;PMS5003;62753;40.394;-80.022;2023-06-22T06:56:17;4;4;
74333;PMS5003;62753;40.394;-80.022;2023-06-22T06:58:43;4;4;
74333;PMS5003;62753;40.394;-80.022;2023-06-22T07:01:08;3;3;
74333;PMS5003;62753;40.394;-80.022;2023-06-22T07:03:33;2;2;
74333;PMS5003;62753;40.394;-80.022;2023-06-22T07:05:59;5;5;
74333;PMS5003;62753;40.394;-80.022;2023-06-22T07:08:24;6;5;
74333;PMS5003;62753;40.394;-80.022;2023-06-22T07:10:49;4;4;
74333;PMS5003;62753;40.394;-80.022;2023-06-22T07:13:14;4;3;
74333;PMS5003;62753;40.394;-80.022;2023-06-22T07:15:40;5;5;
74333;PMS5003;62753;40.394;-80.022;2023-06-22T07:18:06;4;3;
74333;PMS5003;62753;40.394;-80.022;2023-06-22T07:20:31;2;2;
74333;PMS5003;62753;40.394;-80.022;2023-06-22T07:22:56;4;4;
74333;PMS5003;62753;40.394;-80.022;2023-06-22T07:25:21;2;2;
74333;PMS5003;62753;40.394;-80.022;2023-06-22T07:27:57;3;3;
74333;PMS5003;62753;40.394;-80.022;2023-06-22T07:30:12;4;4;
74333;PMS5003;62753;40.394;-80.022;2023-06-22T07:32:37;2;2;
74333;PMS5003;62753;40.394;-80.022;2023-06-22T07:35:03;3;3;
74333;PMS5003;62753;40.394;-80.022;2023-06-22T07:37:28;3;3;
74333;PMS5003;62753;40.394;-80.022;2023-06-22T07:39:53;3;3;
74333;PMS5003;62753;40.394;-80.022;2023-06-22T07:42:18;3;3;
74333;PMS5003;62753;40.394;-80.022;2023-06-22T07:44:44;3;2;
74333;PMS5003;62753;40.394;-80.022;2023-06-22T07:47:09;2;2;
74333;PMS5003;62753;40.394;-80.022;2023-06-22T07:49:34;3;3;
74333;PMS5003;62753;40.394;-80.022;2023-06-22T07:51:59;3;3;
74333;PMS5003;62753;40.394;-80.022;2023-06-22T07:54:25;3;3;
74333;PMS5003;62753;40.394;-80.022;2023-06-22T07:56:50;3;2;
74333;PMS5003;62753;40.394;-80.022;2023-06-22T07:59:15;3;3;
74333;PMS5003;62753;40.394;-80.022;2023-06-22T08:01:40;3;3;
74333;PMS5003;62753;40.394;-80.022;2023-06-22T08:04:06;2;2;
74333;PMS5003;62753;40.394;-80.022;2023-06-22T08:06:31;3;3;
74333;PMS5003;62753;40.394;-80.022;2023-06-22T08:08:56;4;4;
74333;PMS5003;62753;40.394;-80.022;2023-06-22T08:11:22;4;4;
74333;PMS5003;62753;40.394;-80.022;2023-06-22T08:13:47;2;2;
74333;PMS5003;62753;40.394;-80.022;2023-06-22T08:16:12;4;3;
74333;PMS5003;62753;40.394;-80.022;2023-06-22T08:18:37;4;4;
74333;PMS5003;62753;40.394;-80.022;2023-06-22T08:21:03;3;3;
74333;PMS5003;62753;40.394;-80.022;2023-06-22T08:23:29;4;4;
74333;PMS5003;62753;40.394;-80.022;2023-06-22T08:25:54;3;3;
74333;PMS5003;62753;40.394;-80.022;2023-06-22T08:28:19;2;2;
74333;PMS5003;62753;40.394;-80.022;2023-06-22T08:30:45;4;4;
74333;PMS5003;62753;40.394;-80.022;2023-06-22T08:33:10;2;2;
74333;PMS5003;62753;40.394;-80.022;2023-06-22T08:35:35;3;3;
74333;PMS5003;62753;40.394;-80.022;2023-06-22T08:38:00;3;2;
74333;PMS5003;62753;40.394;-80.022;2023-06-22T08:40:26;5;5;
74333;PMS5003;62753;40.394;-80.022;2023-06-22T08:42:51;4;4;
74333;PMS5003;62753;40.394;-80.022;2023-06-22T08:45:16;2;2;
74333;PMS5003;62753;40.394;-80.022;2023-06-22T08:47:41;4;4;
74333;PMS5003;62753;40.394;-80.022;2023-06-22T08:50:07;2;2;
74333;PMS5003;62753;40.394;-80.022;2023-06-22T08:52:32;4;3;
74333;PMS5003;62753;40.394;-80.022;2023-06-22T08:54:57;3;3;
74333;PMS5003;62753;40.394;-80.022;2023-06-22T08:57:22;3;3;
74333;PMS5003;62753;40.394;-80.022;2023-06-22T08:59:48;5;4;
74333;PMS5003;62753;40.394;-80.022;2023-06-22T09:02:13;4;3;
74333;PMS5003;62753;40.394;-80.022;2023-06-22T09:04:38;4;4;
74333;PMS5003;62753;40.394;-80.022;2023-06-22T09:07:04;3;3;
74333;PMS5003;62753;40.394;-80.022;2023-06-22T09:09:29;5;4;
74333;PMS5003;62753;40.394;-80.022;2023-06-22T09:11:54;4;4;
74333;PMS5003;62753;40.394;-80.022;2023-06-22T09:14:20;2;2;
74333;PMS5003;62753;40.394;-80.022;2023-06-22T09:16:45;3;3;
74333;PMS5003;62753;40.394;-80.022;2023-06-22T09:19:10;2;2;
74333;PMS5003;62753;40.394;-80.022;2023-06-22T09:21:36;3;3;
74333;PMS5003;62753;40.394;-80.022;2023-06-22T09:24:00;3;3;
74333;PMS5003;62753;40.394;-80.022;2023-06-22T09:26:26;3;2;
74333;PMS5003;62753;40.394;-80.022;2023-06-22T09:28:51;2;2;
74333;PMS5003;62753;40.394;-80.022;2023-06-22T09:31:16;1;1;
74333;PMS5003;62753;40.394;-80.022;2023-06-22T09:33:42;3;3;
74333;PMS5003;62753;40.394;-80.022;2023-06-22T09:36:07;2;2;
74333;PMS5003;62753;40.394;-80.022;2023-06-22T09:38:34;3;2;
74333;PMS5003;62753;40.394;-80.022;2023-06-22T09:40:57;2;2;
74333;PMS5003;62753;40.394;-80.022;2023-06-22T09:43:23;3;2;
74333;PMS5003;62753;40.394;-80.022;2023-06-22T09:45:48;3;3;
74333;PMS5003;62753;40.394;-80.022;2023-06-22T09:48:13;2;2;
74333;PMS5003;62753;40.394;-80.022;2023-06-22T09:50:39;6;4;
74333;PMS5003;62753;40.394;-80.022;2023-06-22T09:53:04;1;1;
74333;PMS5003;62753;40.394;-80.022;2023-06-22T09:55:30;4;4;
74333;PMS5003;62753;40.394;-80.022;2023-06-22T09:57:55;2;2;
74333;PMS5003;62753;40.394;-80.022;2023-06-22T10:00:20;3;2;
74333;PMS5003;62753;40.394;-80.022;2023-06-22T10:02:46;1;1;
74333;PMS5003;62753;40.394;-80.022;2023-06-22T10:05:11;4;3;
74333;PMS5003;62753;40.394;-80.022;2023-06-22T10:07:36;2;2;
74333;PMS5003;62753;40.394;-80.022;2023-06-22T10:10:02;2;2;
74333;PMS5003;62753;40.394;-80.022;2023-06-22T10:12:27;3;3;
74333;PMS5003;62753;40.394;-80.022;2023-06-22T10:14:52;3;3;
74333;PMS5003;62753;40.394;-80.022;2023-06-22T10:17:17;3;3;
74333;PMS5003;62753;40.394;-80.022;2023-06-22T10:19:42;2;2;
74333;PMS5003;62753;40.394;-80.022;2023-06-22T10:22:08;3;2;
74333;PMS5003;62753;40.394;-80.022;2023-06-22T10:24:33;2;2;
74333;PMS5003;62753;40.394;-80.022;2023-06-22T10:26:58;2;2;
74333;PMS5003;62753;40.394;-80.022;2023-06-22T10:29:24;2;2;
74333;PMS5003;62753;40.394;-80.022;2023-06-22T10:31:49;3;3;
74333;PMS5003;62753;40.394;-80.022;2023-06-22T10:34:14;3;2;
74333;PMS5003;62753;40.394;-80.022;2023-06-22T10:36:39;2;2;
74333;PMS5003;62753;40.394;-80.022;2023-06-22T10:39:05;3;2;
74333;PMS5003;62753;40.394;-80.022;2023-06-22T10:41:30;3;3;
74333;PMS5003;62753;40.394;-80.022;2023-06-22T10:43:55;2;2;
74333;PMS5003;62753;40.394;-80.022;2023-06-22T10:46:20;2;2;
74333;PMS5003;62753;40.394;-80.022;2023-06-22T10:48:46;5;3;
74333;PMS5003;62753;40.394;-80.022;2023-06-22T10:51:11;2;2;
74333;PMS5003;62753;40.394;-80.022;2023-06-22T10:53:36;1;1;
74333;PMS5003;62753;40.394;-80.022;2023-06-22T10:56:02;2;2;
74333;PMS5003;62753;40.394;-80.022;2023-06-22T10:58:27;3;3;
74333;PMS5003;62753;40.394;-80.022;2023-06-22T11:00:52;3;3;
74333;PMS5003;62753;40.394;-80.022;2023-06-22T11:03:18;2;2;
74333;PMS5003;62753;40.394;-80.022;2023-06-22T11:05:43;4;2;
74333;PMS5003;62753;40.394;-80.022;2023-06-22T11:08:08;2;2;
74333;PMS5003;62753;40.394;-80.022;2023-06-22T11:10:33;3;3;
74333;PMS5003;62753;40.394;-80.022;2023-06-22T11:12:59;2;2;
74333;PMS5003;62753;40.394;-80.022;2023-06-22T11:15:24;3;3;
74333;PMS5003;62753;40.394;-80.022;2023-06-22T11:17:49;2;2;
74333;PMS5003;62753;40.394;-80.022;2023-06-22T11:20:15;2;2;
74333;PMS5003;62753;40.394;-80.022;2023-06-22T11:22:40;2;2;
74333;PMS5003;62753;40.394;-80.022;2023-06-22T11:25:05;2;2;
74333;PMS5003;62753;40.394;-80.022;2023-06-22T11:27:31;3;3;
74333;PMS5003;62753;40.394;-80.022;2023-06-22T11:29:56;2;2;
74333;PMS5003;62753;40.394;-80.022;2023-06-22T11:32:22;1;1;
74333;PMS5003;62753;40.394;-80.022;2023-06-22T11:34:47;1;1;
74333;PMS5003;62753;40.394;-80.022;2023-06-22T11:37:12;2;1;
74333;PMS5003;62753;40.394;-80.022;2023-06-22T11:39:37;2;2;
74333;PMS5003;62753;40.394;-80.022;2023-06-22T11:42:03;1;0;
74333;PMS5003;62753;40.394;-80.022;2023-06-22T11:44:28;1;1;
74333;PMS5003;62753;40.394;-80.022;2023-06-22T11:46:53;1;1;
74333;PMS5003;62753;40.394;-80.022;2023-06-22T11:49:18;1;1;
74333;PMS5003;62753;40.394;-80.022;2023-06-22T11:51:44;2;2;
74333;PMS5003;62753;40.394;-80.022;2023-06-22T11:54:09;1;1;
74333;PMS5003;62753;40.394;-80.022;2023-06-22T11:56:35;1;1;
74333;PMS5003;62753;40.394;-80.022;2023-06-22T11:59:00;2;2;
74333;PMS5003;62753;40.394;-80.022;2023-06-22T12:01:25;4;2;
74333;PMS5003;62753;40.394;-80.022;2023-06-22T12:03:51;2;1;
74333;PMS5003;62753;40.394;-80.022;2023-06-22T12:06:16;2;1;
74333;PMS5003;62753;40.394;-80.022;2023-06-22T12:08:41;1;1;
74333;PMS5003;62753;40.394;-80.022;2023-06-22T12:11:06;2;2;
74333;PMS5003;62753;40.394;-80.022;2023-06-22T12:13:32;2;2;
74333;PMS5003;62753;40.394;-80.022;2023-06-22T12:15:57;2;2;
74333;PMS5003;62753;40.394;-80.022;2023-06-22T12:18:22;1;1;
74333;PMS5003;62753;40.394;-80.022;2023-06-22T12:20:48;0;0;
74333;PMS5003;62753;40.394;-80.022;2023-06-22T12:23:14;1;1;
74333;PMS5003;62753;40.394;-80.022;2023-06-22T12:25:38;2;2;
74333;PMS5003;62753;40.394;-80.022;2023-06-22T12:28:03;1;1;
74333;PMS5003;62753;40.394;-80.022;2023-06-22T12:30:28;2;2;
74333;PMS5003;62753;40.394;-80.022;2023-06-22T12:32:54;0;0;
74333;PMS5003;62753;40.394;-80.022;2023-06-22T12:35:19;1;1;
74333;PMS5003;62753;40.394;-80.022;2023-06-22T12:37:44;2;1;
74333;PMS5003;62753;40.394;-80.022;2023-06-22T12:40:10;1;1;
74333;PMS5003;62753;40.394;-80.022;2023-06-22T12:42:35;1;0;
74333;PMS5003;62753;40.394;-80.022;2023-06-22T12:45:00;2;1;
74333;PMS5003;62753;40.394;-80.022;2023-06-22T12:47:25;1;1;
74333;PMS5003;62753;40.394;-80.022;2023-06-22T12:49:50;0;0;
74333;PMS5003;62753;40.394;-80.022;2023-06-22T12:52:16;1;1;
74333;PMS5003;62753;40.394;-80.022;2023-06-22T12:54:41;1;0;
74333;PMS5003;62753;40.394;-80.022;2023-06-22T12:57:06;1;1;
74333;PMS5003;62753;40.394;-80.022;2023-06-22T12:59:31;1;1;
74333;PMS5003;62753;40.394;-80.022;2023-06-22T13:01:56;1;1;
74333;PMS5003;62753;40.394;-80.022;2023-06-22T13:04:22;1;1;
74333;PMS5003;62753;40.394;-80.022;2023-06-22T13:06:47;0;0;
74333;PMS5003;62753;40.394;-80.022;2023-06-22T13:09:12;0;0;
74333;PMS5003;62753;40.394;-80.022;2023-06-22T13:11:37;1;0;
74333;PMS5003;62753;40.394;-80.022;2023-06-22T13:14:03;1;1;
74333;PMS5003;62753;40.394;-80.022;2023-06-22T13:16:28;1;1;
74333;PMS5003;62753;40.394;-80.022;2023-06-22T13:18:53;2;1;
74333;PMS5003;62753;40.394;-80.022;2023-06-22T13:21:18;0;0;
74333;PMS5003;62753;40.394;-80.022;2023-06-22T13:23:44;2;1;
74333;PMS5003;62753;40.394;-80.022;2023-06-22T13:26:09;2;1;
74333;PMS5003;62753;40.394;-80.022;2023-06-22T13:28:34;0;0;
74333;PMS5003;62753;40.394;-80.022;2023-06-22T13:31:00;1;1;
74333;PMS5003;62753;40.394;-80.022;2023-06-22T13:33:24;1;1;
74333;PMS5003;62753;40.394;-80.022;2023-06-22T13:35:50;1;1;
74333;PMS5003;62753;40.394;-80.022;2023-06-22T13:38:15;1;1;
74333;PMS5003;62753;40.394;-80.022;2023-06-22T13:40:40;0;0;
74333;PMS5003;62753;40.394;-80.022;2023-06-22T13:43:05;1;1;
74333;PMS5003;62753;40.394;-80.022;2023-06-22T13:45:31;0;0;
74333;PMS5003;62753;40.394;-80.022;2023-06-22T13:47:56;1;1;
74333;PMS5003;62753;40.394;-80.022;2023-06-22T13:50:21;1;1;
74333;PMS5003;62753;40.394;-80.022;2023-06-22T13:52:46;0;0;
74333;PMS5003;62753;40.394;-80.022;2023-06-22T13:55:11;1;1;
74333;PMS5003;62753;40.394;-80.022;2023-06-22T13:57:36;0;0;
74333;PMS5003;62753;40.394;-80.022;2023-06-22T14:00:02;0;0;
74333;PMS5003;62753;40.394;-80.022;2023-06-22T14:02:27;0;0;
74333;PMS5003;62753;40.394;-80.022;2023-06-22T14:04:52;2;1;
74333;PMS5003;62753;40.394;-80.022;2023-06-22T14:07:17;0;0;
74333;PMS5003;62753;40.394;-80.022;2023-06-22T14:09:43;1;1;
74333;PMS5003;62753;40.394;-80.022;2023-06-22T14:12:09;0;0;
74333;PMS5003;62753;40.394;-80.022;2023-06-22T14:14:34;0;0;
74333;PMS5003;62753;40.394;-80.022;2023-06-22T14:16:59;1;1;
74333;PMS5003;62753;40.394;-80.022;2023-06-22T14:19:24;1;1;
74333;PMS5003;62753;40.394;-80.022;2023-06-22T14:21:49;0;0;
74333;PMS5003;62753;40.394;-80.022;2023-06-22T14:24:14;1;0;
74333;PMS5003;62753;40.394;-80.022;2023-06-22T14:26:39;2;0;
74333;PMS5003;62753;40.394;-80.022;2023-06-22T14:29:05;0;0;
74333;PMS5003;62753;40.394;-80.022;2023-06-22T14:31:30;1;1;
74333;PMS5003;62753;40.394;-80.022;2023-06-22T14:33:55;0;0;
74333;PMS5003;62753;40.394;-80.022;2023-06-22T14:36:20;0;0;
74333;PMS5003;62753;40.394;-80.022;2023-06-22T14:38:45;1;1;
74333;PMS5003;62753;40.394;-80.022;2023-06-22T14:41:11;0;0;
74333;PMS5003;62753;40.394;-80.022;2023-06-22T14:43:36;0;0;
74333;PMS5003;62753;40.394;-80.022;2023-06-22T14:46:01;0;0;
74333;PMS5003;62753;40.394;-80.022;2023-06-22T14:48:26;1;0;
74333;PMS5003;62753;40.394;-80.022;2023-06-22T14:50:51;3;3;
74333;PMS5003;62753;40.394;-80.022;2023-06-22T14:53:17;1;1;
74333;PMS5003;62753;40.394;-80.022;2023-06-22T14:55:42;0;0;
74333;PMS5003;62753;40.394;-80.022;2023-06-22T14:58:09;0;0;
74333;PMS5003;62753;40.394;-80.022;2023-06-22T15:00:32;0;0;
74333;PMS5003;62753;40.394;-80.022;2023-06-22T15:02:58;0;0;
74333;PMS5003;62753;40.394;-80.022;2023-06-22T15:05:23;1;1;
74333;PMS5003;62753;40.394;-80.022;2023-06-22T15:07:48;1;1;
74333;PMS5003;62753;40.394;-80.022;2023-06-22T15:10:18;0;0;
74333;PMS5003;62753;40.394;-80.022;2023-06-22T15:12:39;2;1;
74333;PMS5003;62753;40.394;-80.022;2023-06-22T15:15:04;0;0;
74333;PMS5003;62753;40.394;-80.022;2023-06-22T15:17:29;1;1;
74333;PMS5003;62753;40.394;-80.022;2023-06-22T15:19:54;0;0;
74333;PMS5003;62753;40.394;-80.022;2023-06-22T15:22:24;3;2;
74333;PMS5003;62753;40.394;-80.022;2023-06-22T15:24:44;0;0;
74333;PMS5003;62753;40.394;-80.022;2023-06-22T15:27:10;0;0;
74333;PMS5003;62753;40.394;-80.022;2023-06-22T15:29:35;1;1;
74333;PMS5003;62753;40.394;-80.022;2023-06-22T15:32:00;3;3;
74333;PMS5003;62753;40.394;-80.022;2023-06-22T15:34:25;1;1;
74333;PMS5003;62753;40.394;-80.022;2023-06-22T15:36:50;1;0;
74333;PMS5003;62753;40.394;-80.022;2023-06-22T15:39:15;0;0;
74333;PMS5003;62753;40.394;-80.022;2023-06-22T15:41:41;0;0;
74333;PMS5003;62753;40.394;-80.022;2023-06-22T15:44:05;0;0;
74333;PMS5003;62753;40.394;-80.022;2023-06-22T15:46:31;0;0;
74333;PMS5003;62753;40.394;-80.022;2023-06-22T15:48:57;0;0;
74333;PMS5003;62753;40.394;-80.022;2023-06-22T15:51:21;0;0;
74333;PMS5003;62753;40.394;-80.022;2023-06-22T15:53:46;0;0;
74333;PMS5003;62753;40.394;-80.022;2023-06-22T15:56:16;1;1;
74333;PMS5003;62753;40.394;-80.022;2023-06-22T15:58:38;1;1;
74333;PMS5003;62753;40.394;-80.022;2023-06-22T16:01:08;0;0;
74333;PMS5003;62753;40.394;-80.022;2023-06-22T16:03:27;1;1;
74333;PMS5003;62753;40.394;-80.022;2023-06-22T16:05:52;1;1;
74333;PMS5003;62753;40.394;-80.022;2023-06-22T16:08:17;0;0;